Landes Station, West Virginia
Current Conditions -  °F | °C
As of 11:35 AM on Friday 31 Oct 2014 (Local Time) from KW99 Reporting Station
Overcast Overcast  
Wind Chill: 44°   Ceiling: 5000
Heat Index: 44°   Visibility: 10mi
Dew Point: 34°   Wind: 0mph
Humidity: 67%   Direction: NA
Pressure: 29.96"   Gusts: NA
Location:  38.9337°N, 79.1435°W
Report Text: KW99 311535Z AUTO 00000KT 10SM OVC050 07/01 A2996 RMK AO2 T00690011
Loading
Personal Weather Stations






























Interactive Weather Map
Tropical Storm Tracking
New forecast layout! Learn more

10-Day Weather Forecast

Advertisements
Track Severe Weather on mobile